Port Orford, OR

1:17 PM PDT on July 24, 2014 (GMT -0700)
North Bend (KOTH) Elev 16 ft | 43.42 °N, 124.25 °W | Change Station

Current weather conditions updated 22 minutes ago

Mostly Cloudy
Mostly Cloudy
66 °F
Feels Like 66 °F
N
8
Wind Variable Wind from North

Today is forecast to be nearly the same temperature as yesterday.

Today
High -- | Low -- °F
--% Chance of Precip.
Yesterday
High -- | Low -- °F
Precip. -- in
6:01 AM 8:46 PM
Waning Crescent, 4% visible
Pressure 30.28 in
Visibility 10.0 miles
Clouds Mostly Cloudy 5000 ft
Dew Point 57 °F
Humidity 73%
Rainfall 0.00 in
Snow Depth Not available.
UV 6 out of 12
Pollen 4.30 out of 12
Air Quality Not available.
Flu Activity Not available.
METAR KOTH 241955Z 35007KT 10SM BKN050 19/14 A3028 RMK AO1

More Conditions Fewer Conditions

Pressure 30.28 in
Visibility 10.0 miles
Clouds Mostly Cloudy 5000 ft
Dew Point 57 °F
Humidity 73%
Rainfall 0.00 in
Snow Depth Not available.
UV 6 out of 12
Pollen 4.30 out of 12
Air Quality Not available.
Flu Activity Not available.
METAR KOTH 241955Z 35007KT 10SM BKN050 19/14 A3028 RMK AO1

More Conditions Fewer Conditions

10-Day Weather Forecast

Almanac

Astronomy

Jul. 24, 2014 Rise Set
Actual Time 6:01 AM PDT 8:46 PM PDT
Civil Twilight 5:28 AM PDT 9:19 PM PDT
Nautical Twilight 4:46 AM PDT 10:01 PM PDT
Astronomical Twilight 3:59 AM PDT 10:48 PM PDT
Moon 4:14 AM PDT 7:05 PM PDT
Length of Visible Light 15h 51m
Length of Day
14h 45m
Tomorrow will be 1m 56s shorter.
Waning Crescent, 4% of the Moon is Illuminated
Today
Waning Crescent
Jul 26
New
Aug 3
First Quarter
Aug 10
Full
Aug 17
Last Quarter

Today's Extremes

State Highs State Lows

Community

WunderPhotos

Upload Photos

1,737,108 photos uploaded!

Nearby

Snow Depth

Station Depth Elevation
Fish Lake 0 in 4665 ft
Holland Meadows 0 in 4900 ft
Fourmile Lake 1 in 6000 ft
Sevenmile Marsh 0 in 6200 ft
Diamond Lake 0 in 5315 ft

Earthquake Activity

City Distance Mag. Time & Date
Bayview, California 131 miles 2.8 8:12 AM PDT
2014-07-20
Minimum magnitude displayed is 2.5.

Coastal Water Temperatures

Place Temperature
Port Orford, OR 55.9 °F
Crescent City, CA 59.0 °F
Charleston, OR 52.0 °F

Nearby Weather Stations

Station Location Temp. Heat Index Dew Point Humidity Wind Precip. Elev Updated Type
Port Orford RV Village, Port Orford, OR 70.7 °F 76 °F 57 °F 62% WSW  at  4.0 mph 0.00 in / hr 47 ft 1:17 PM PDT Rapid Fire
Pelennor Fields, Powers, OR 74.1 °F 77 °F 53 °F 47% WNW  at  6.3 mph - / hr 243 ft 1:01 PM PDT Normal
MesoWest Gold Beach , Gold Beach, OR 64 °F - 55 °F 73% North  at  20 mph 0.00 in / hr 16 ft 12:39 PM PDT MADIS
Bandon, OR 57.3 °F - 54 °F 88% NNW  at  9.0 mph 0.00 in / hr 77 ft 1:17 PM PDT Normal
RAWS BALD KNOB OR, Agness, OR 61 °F - 50 °F 68% NNW  at  4 mph 0.00 in / hr 3629 ft 12:39 PM PDT MADIS

Show More Stations Show Fewer Stations